createdAt,value
2022-11-08T00:02:27.733Z,95293.53
2022-11-08T00:04:55.557Z,95296.88
2022-11-08T00:07:42.215Z,95293.53
2022-11-08T00:10:27.859Z,95296.72
2022-11-08T00:13:13.004Z,95296.59
2022-11-08T00:15:40.722Z,95293.41
2022-11-08T00:18:09.085Z,95295.84
2022-11-08T00:20:36.909Z,95282.16
2022-11-08T00:23:06.036Z,95291.97
2022-11-08T00:25:33.779Z,95281.47
2022-11-08T00:28:01.563Z,95278.44
2022-11-08T00:30:29.517Z,95291.44
2022-11-08T00:32:57.335Z,95298.59
2022-11-08T00:35:25.286Z,95299.19
2022-11-08T00:37:53.123Z,95302.31
2022-11-08T00:40:22.242Z,95300.44
2022-11-08T00:42:50.098Z,95301.53
2022-11-08T00:45:17.850Z,95288.50
2022-11-08T00:47:45.617Z,95291.53
2022-11-08T00:50:13.436Z,95274.41
2022-11-08T00:52:41.274Z,95273.47
2022-11-08T00:55:09.466Z,95263.97
2022-11-08T00:57:53.981Z,95248.59
2022-11-08T01:00:26.696Z,95251.16
2022-11-08T01:03:14.621Z,95252.66
2022-11-08T01:05:45.924Z,95252.97
2022-11-08T01:08:14.840Z,95238.50
2022-11-08T01:10:57.848Z,95244.22
2022-11-08T01:13:27.030Z,95238.81
2022-11-08T01:15:54.869Z,95219.56
2022-11-08T01:18:22.693Z,95241.38
2022-11-08T01:20:51.392Z,95234.69
2022-11-08T01:23:19.737Z,95234.81
2022-11-08T01:25:48.682Z,95231.16
2022-11-08T01:28:17.164Z,95234.03
2022-11-08T01:30:47.350Z,95235.78
2022-11-08T01:33:16.110Z,95224.50
2022-11-08T01:35:46.176Z,95226.75
2022-11-08T01:38:14.512Z,95208.13
2022-11-08T01:40:48.759Z,95219.44
2022-11-08T01:43:36.874Z,95221.06
2022-11-08T01:46:37.442Z,95221.53
2022-11-08T01:49:33.843Z,95217.72
2022-11-08T01:52:08.993Z,95209.31
2022-11-08T01:54:43.109Z,95202.28
2022-11-08T01:57:15.905Z,95201.13
2022-11-08T01:59:46.766Z,95200.81
2022-11-08T02:02:15.088Z,95197.81
2022-11-08T02:04:47.260Z,95200.22
2022-11-08T02:07:15.371Z,95187.66
2022-11-08T02:09:46.084Z,95199.91
2022-11-08T02:12:15.674Z,95178.03
2022-11-08T02:14:46.294Z,95189.03
2022-11-08T02:17:14.653Z,95179.97
2022-11-08T02:19:46.330Z,95177.75
2022-11-08T02:22:22.013Z,95171.91
2022-11-08T02:24:51.210Z,95167.00
2022-11-08T02:27:19.362Z,95160.16
2022-11-08T02:29:47.437Z,95165.88
2022-11-08T02:32:15.980Z,95162.22
2022-11-08T02:34:47.017Z,95157.91
2022-11-08T02:37:17.818Z,95171.28
2022-11-08T02:39:46.575Z,95165.72
2022-11-08T02:42:18.546Z,95167.31
2022-11-08T02:44:46.756Z,95166.56
2022-11-08T02:47:14.961Z,95168.00
2022-11-08T02:49:43.211Z,95164.22
2022-11-08T02:52:11.215Z,95158.03
2022-11-08T02:54:39.543Z,95159.78
2022-11-08T02:57:07.658Z,95157.22
2022-11-08T02:59:36.930Z,95153.25
2022-11-08T03:02:04.954Z,95161.19
2022-11-08T03:04:33.104Z,95154.84
2022-11-08T03:07:01.016Z,95153.44
2022-11-08T03:09:29.057Z,95153.91
2022-11-08T03:11:57.033Z,95154.38
2022-11-08T03:14:24.882Z,95135.63
2022-11-08T03:16:54.190Z,95151.19
2022-11-08T03:19:22.097Z,95146.72
2022-11-08T03:21:50.144Z,95154.34
2022-11-08T03:24:18.057Z,95149.09
2022-11-08T03:26:45.951Z,95137.81
2022-11-08T03:29:14.043Z,95150.22
2022-11-08T03:31:41.954Z,95138.81
2022-11-08T03:34:12.028Z,95153.66
2022-11-08T03:36:39.943Z,95151.84
2022-11-08T03:39:07.799Z,95148.56
2022-11-08T03:41:35.956Z,95142.69
2022-11-08T03:44:04.027Z,95134.50
2022-11-08T03:46:32.013Z,95146.66
2022-11-08T03:48:59.877Z,95138.25
2022-11-08T03:51:29.142Z,95126.19
2022-11-08T03:53:57.053Z,95119.72
2022-11-08T03:56:25.018Z,95132.78
2022-11-08T03:58:52.916Z,95146.25
2022-11-08T04:01:20.969Z,95137.66
2022-11-08T04:03:49.047Z,95127.06
2022-11-08T04:06:17.113Z,95118.66
2022-11-08T04:08:46.405Z,95119.31
2022-11-08T04:11:34.129Z,95119.16
2022-11-08T04:14:19.728Z,95119.09
2022-11-08T04:16:47.646Z,95110.84
2022-11-08T04:19:33.396Z,95120.25
2022-11-08T04:22:01.317Z,95127.88
2022-11-08T04:24:32.929Z,95124.34
2022-11-08T04:27:01.475Z,95118.00
2022-11-08T04:29:32.128Z,95130.22
2022-11-08T04:32:00.086Z,95125.41
2022-11-08T04:34:28.192Z,95118.56
2022-11-08T04:36:56.268Z,95115.09
2022-11-08T04:39:24.062Z,95111.03
2022-11-08T04:41:56.483Z,95111.19
2022-11-08T04:44:27.035Z,95105.66
2022-11-08T04:46:55.040Z,95107.88
2022-11-08T04:49:22.989Z,95106.28
2022-11-08T04:51:50.852Z,95093.69
2022-11-08T04:54:18.712Z,95094.97
2022-11-08T04:56:46.696Z,95104.75
2022-11-08T04:59:15.961Z,95106.28
2022-11-08T05:01:44.260Z,95101.81
2022-11-08T05:04:12.462Z,95099.53
2022-11-08T05:06:40.331Z,95090.16
2022-11-08T05:09:08.638Z,95091.06
2022-11-08T05:11:36.468Z,95099.38
2022-11-08T05:14:04.412Z,95092.75
2022-11-08T05:16:33.864Z,95083.03
2022-11-08T05:19:02.057Z,95086.75
2022-11-08T05:21:47.755Z,95088.25
2022-11-08T05:24:18.313Z,95077.16
2022-11-08T05:26:48.141Z,95084.41
2022-11-08T05:29:17.072Z,95091.91
2022-11-08T05:31:46.314Z,95081.16
2022-11-08T05:34:14.271Z,95079.00
2022-11-08T05:36:42.177Z,95080.28
2022-11-08T05:39:10.233Z,95073.34
2022-11-08T05:41:38.102Z,95070.19
2022-11-08T05:44:06.205Z,95066.03
2022-11-08T05:46:34.091Z,95075.34
2022-11-08T05:49:03.745Z,95078.03
2022-11-08T05:51:33.130Z,95074.03
2022-11-08T05:54:01.070Z,95067.25
2022-11-08T05:56:29.182Z,95074.72
2022-11-08T05:58:57.173Z,95061.59
2022-11-08T06:01:25.209Z,95080.72
2022-11-08T06:03:53.393Z,95070.69
2022-11-08T06:06:23.911Z,95069.25
2022-11-08T06:08:54.817Z,95075.28
2022-11-08T06:11:24.843Z,95076.56
2022-11-08T06:13:53.761Z,95075.19
2022-11-08T06:16:23.413Z,95071.03
2022-11-08T06:18:51.282Z,95074.94
2022-11-08T06:21:20.691Z,95066.09
2022-11-08T06:23:53.050Z,95081.06
2022-11-08T06:26:23.154Z,95091.06
2022-11-08T06:28:51.131Z,95081.00
2022-11-08T06:31:19.054Z,95091.16
2022-11-08T06:33:46.991Z,95073.22
2022-11-08T06:36:14.821Z,95094.59
2022-11-08T06:38:42.710Z,95088.09
2022-11-08T06:41:18.322Z,95086.84
2022-11-08T06:43:46.112Z,95088.94
2022-11-08T06:46:14.028Z,95083.75
2022-11-08T06:48:42.362Z,95086.44
2022-11-08T06:51:10.322Z,95099.94
2022-11-08T06:53:38.385Z,95099.78
2022-11-08T06:56:06.648Z,95105.66
2022-11-08T06:58:36.100Z,95106.94
2022-11-08T07:01:05.269Z,95095.00
2022-11-08T07:03:34.180Z,95100.41
2022-11-08T07:06:03.908Z,95101.22
2022-11-08T07:08:32.009Z,95099.78
2022-11-08T07:11:00.505Z,95110.25
2022-11-08T07:13:28.511Z,95087.97
2022-11-08T07:16:00.744Z,95102.69
2022-11-08T07:18:29.029Z,95099.97
2022-11-08T07:21:00.267Z,95092.41
2022-11-08T07:23:28.196Z,95095.19
2022-11-08T07:25:56.519Z,95097.97
2022-11-08T07:28:24.407Z,95103.75
2022-11-08T07:30:52.268Z,95099.94
2022-11-08T07:33:22.148Z,95104.66
2022-11-08T07:35:50.158Z,95099.22
2022-11-08T07:38:17.988Z,95094.75
2022-11-08T07:40:45.846Z,95095.06
2022-11-08T07:43:13.698Z,95094.88
2022-11-08T07:45:43.958Z,95103.28
2022-11-08T07:48:13.949Z,95099.06
2022-11-08T07:50:43.614Z,95100.44
2022-11-08T07:53:11.772Z,95095.91
2022-11-08T07:55:40.789Z,95093.16
2022-11-08T07:58:10.960Z,95090.06
2022-11-08T08:00:40.370Z,95093.25
2022-11-08T08:03:10.003Z,95084.22
2022-11-08T08:05:39.510Z,95092.72
2022-11-08T08:08:09.528Z,95092.47
2022-11-08T08:10:37.917Z,95082.69
2022-11-08T08:13:07.392Z,95084.59
2022-11-08T08:15:35.767Z,95080.41
2022-11-08T08:18:05.267Z,95081.16
2022-11-08T08:20:33.360Z,95081.09
2022-11-08T08:23:01.599Z,95082.16
2022-11-08T08:25:31.453Z,95087.09
2022-11-08T08:28:01.821Z,95094.41
2022-11-08T08:30:31.305Z,95093.28
2022-11-08T08:33:26.908Z,95101.50
2022-11-08T08:35:53.529Z,95090.19
2022-11-08T08:38:21.725Z,95100.44
2022-11-08T08:40:51.500Z,95094.88
2022-11-08T08:43:20.027Z,95098.78
2022-11-08T08:45:48.777Z,95094.09
2022-11-08T08:48:16.704Z,95081.81
2022-11-08T08:50:44.536Z,95091.53
2022-11-08T08:53:12.403Z,95096.03
2022-11-08T08:55:41.785Z,95092.06
2022-11-08T08:58:11.926Z,95089.50
2022-11-08T09:03:29.010Z,95092.50
2022-11-08T09:05:59.073Z,95097.53
2022-11-08T09:08:27.251Z,95097.75
2022-11-08T09:10:55.794Z,95093.81
2022-11-08T09:13:26.759Z,95101.75
2022-11-08T09:15:55.205Z,95104.63
2022-11-08T09:18:23.662Z,95094.59
2022-11-08T09:20:51.547Z,95090.88
2022-11-08T09:23:19.710Z,95087.16
2022-11-08T09:25:47.828Z,95092.16
2022-11-08T09:28:15.918Z,95095.00
2022-11-08T09:30:45.191Z,95097.00
2022-11-08T09:33:13.247Z,95098.69
2022-11-08T09:35:41.053Z,95095.09
2022-11-08T09:38:08.847Z,95099.88
2022-11-08T09:40:40.803Z,95100.53
2022-11-08T09:43:30.149Z,95110.88
2022-11-08T09:45:59.514Z,95113.50
2022-11-08T09:48:31.098Z,95108.34
2022-11-08T09:51:04.634Z,95093.84
2022-11-08T09:53:39.868Z,95100.56
2022-11-08T09:56:14.230Z,95094.81
2022-11-08T09:58:49.606Z,95088.59
2022-11-08T10:01:21.188Z,95086.66
2022-11-08T10:03:56.155Z,95082.53
2022-11-08T10:06:50.737Z,95085.16
2022-11-08T10:09:35.088Z,95081.94
2022-11-08T10:12:18.025Z,95077.63
2022-11-08T10:15:03.824Z,95081.84
2022-11-08T10:17:49.951Z,95090.41
2022-11-08T10:20:27.549Z,95082.31
2022-11-08T10:23:03.453Z,95082.47
2022-11-08T10:25:37.382Z,95079.06
2022-11-08T10:28:07.747Z,95072.84
2022-11-08T10:30:39.660Z,95081.72
2022-11-08T10:33:17.481Z,95080.63
2022-11-08T10:35:49.391Z,95072.41
2022-11-08T10:38:21.336Z,95069.84
2022-11-08T10:40:57.230Z,95064.81
2022-11-08T10:43:33.369Z,95065.53
2022-11-08T10:46:01.121Z,95069.69
2022-11-08T10:48:33.797Z,95067.16
2022-11-08T10:51:01.563Z,95069.75
2022-11-08T10:53:31.735Z,95064.91
2022-11-08T10:56:04.282Z,95055.94
2022-11-08T10:58:38.097Z,95055.31
2022-11-08T11:01:14.527Z,95058.78
2022-11-08T11:03:44.171Z,95067.28
2022-11-08T11:06:24.835Z,95062.09
2022-11-08T11:08:56.786Z,95059.50
2022-11-08T11:11:27.693Z,95061.88
2022-11-08T11:14:18.126Z,95058.59
2022-11-08T11:16:56.482Z,95066.00
2022-11-08T11:19:27.208Z,95055.34
2022-11-08T11:21:58.485Z,95049.88
2022-11-08T11:24:26.977Z,95059.78
2022-11-08T11:27:04.261Z,95053.84
2022-11-08T11:29:33.802Z,95058.00
2022-11-08T11:32:24.163Z,95053.81
2022-11-08T11:34:57.021Z,95047.13
2022-11-08T11:37:40.285Z,95045.72
2022-11-08T11:40:17.311Z,95029.84
2022-11-08T11:42:55.462Z,95039.53
2022-11-08T11:45:29.998Z,95039.44
2022-11-08T11:47:59.693Z,95036.69
2022-11-08T11:50:34.449Z,95030.03
2022-11-08T11:53:05.670Z,95028.16
2022-11-08T11:55:47.437Z,95027.97
2022-11-08T11:58:28.148Z,95038.13
2022-11-08T12:01:00.510Z,95032.78
2022-11-08T12:03:52.101Z,95034.44
2022-11-08T12:06:33.493Z,95043.16
2022-11-08T12:09:14.146Z,95038.34
2022-11-08T12:11:53.073Z,95038.88
2022-11-08T12:14:35.551Z,95032.13
2022-11-08T12:17:20.572Z,95029.00
2022-11-08T12:19:59.164Z,95044.25
2022-11-08T12:22:46.020Z,95033.09
2022-11-08T12:25:21.357Z,95035.50
2022-11-08T12:27:52.809Z,95043.91
2022-11-08T12:30:24.995Z,95039.03
2022-11-08T12:33:12.702Z,95052.75
2022-11-08T12:35:55.307Z,95044.84
2022-11-08T12:38:33.264Z,95045.50
2022-11-08T12:41:11.958Z,95042.22
2022-11-08T12:44:00.520Z,95045.63
2022-11-08T12:46:33.586Z,95047.75
2022-11-08T12:49:19.728Z,95056.22
2022-11-08T12:52:03.040Z,95045.88
2022-11-08T12:54:36.661Z,95054.66
2022-11-08T12:57:10.418Z,95040.09
2022-11-08T12:59:42.528Z,95050.25
2022-11-08T13:02:17.976Z,95058.38
2022-11-08T13:04:56.885Z,95053.66
2022-11-08T13:07:39.171Z,95054.19
2022-11-08T13:10:16.644Z,95056.81
2022-11-08T13:13:08.369Z,95060.56
2022-11-08T13:15:36.353Z,95059.50
2022-11-08T13:18:26.036Z,95064.09
2022-11-08T13:20:54.142Z,95060.25
2022-11-08T13:23:30.517Z,95068.22
2022-11-08T13:26:21.442Z,95068.72
2022-11-08T13:28:49.714Z,95065.69
2022-11-08T13:31:27.269Z,95063.91
2022-11-08T13:34:13.012Z,95071.81
2022-11-08T13:36:53.460Z,95061.84
2022-11-08T13:39:51.319Z,95058.81
2022-11-08T13:42:38.956Z,95058.44
2022-11-08T13:45:26.820Z,95056.91
2022-11-08T13:47:57.894Z,95055.81
2022-11-08T13:50:54.980Z,95062.09
2022-11-08T13:53:44.616Z,95059.25
2022-11-08T13:56:43.420Z,95054.06
2022-11-08T13:59:50.928Z,95054.00
2022-11-08T14:02:39.534Z,95057.91
2022-11-08T14:05:28.245Z,95054.97
2022-11-08T14:08:24.478Z,95046.03
2022-11-08T14:11:32.047Z,95050.22
2022-11-08T14:14:24.729Z,95036.53
2022-11-08T14:17:08.372Z,95039.78
2022-11-08T14:19:40.418Z,95039.75
2022-11-08T14:22:17.309Z,95051.38
2022-11-08T14:24:45.424Z,95043.41
2022-11-08T14:27:15.785Z,95043.59
2022-11-08T14:29:44.142Z,95054.41
2022-11-08T14:32:18.153Z,95049.81
2022-11-08T14:34:50.283Z,95046.97
2022-11-08T14:37:24.103Z,95040.56
2022-11-08T14:39:53.301Z,95047.59
2022-11-08T14:42:24.353Z,95052.19
2022-11-08T14:44:55.287Z,95051.50
2022-11-08T14:47:25.889Z,95046.25
2022-11-08T14:49:55.143Z,95057.59
2022-11-08T14:52:27.358Z,95053.25
2022-11-08T14:55:06.006Z,95049.75
2022-11-08T14:57:36.499Z,95054.28
2022-11-08T15:00:14.604Z,95049.34
2022-11-08T15:02:45.697Z,95054.94
2022-11-08T15:05:41.406Z,95052.25
2022-11-08T15:08:21.462Z,95042.75
2022-11-08T15:10:55.408Z,95043.16
2022-11-08T15:13:23.738Z,95042.88
2022-11-08T15:15:56.548Z,95038.06
2022-11-08T15:18:28.305Z,95042.03
2022-11-08T15:21:02.745Z,95036.78
2022-11-08T15:23:44.838Z,95039.53
2022-11-08T15:26:23.667Z,95042.69
2022-11-08T15:28:59.317Z,95022.63
2022-11-08T15:31:29.767Z,95023.97
2022-11-08T15:33:58.391Z,95031.44
2022-11-08T15:36:33.320Z,95028.06
2022-11-08T15:39:02.169Z,95034.91
2022-11-08T15:41:34.339Z,95026.13
2022-11-08T15:44:17.526Z,95022.63
2022-11-08T15:46:45.682Z,95027.00
2022-11-08T15:49:21.042Z,95033.00
2022-11-08T15:51:52.663Z,95029.47
2022-11-08T15:54:22.209Z,95032.47
2022-11-08T15:56:53.275Z,95022.03
2022-11-08T15:59:26.612Z,95016.34
2022-11-08T16:01:56.411Z,95018.31
2022-11-08T16:04:24.598Z,95028.63
2022-11-08T16:06:54.092Z,95021.53
2022-11-08T16:09:22.173Z,95024.09
2022-11-08T16:11:51.534Z,95024.53
2022-11-08T16:14:21.612Z,95031.44
2022-11-08T16:16:49.874Z,95021.38
2022-11-08T16:19:23.582Z,95024.34
2022-11-08T16:21:53.661Z,95021.22
2022-11-08T16:24:21.773Z,95009.75
2022-11-08T16:26:50.185Z,95013.72
2022-11-08T16:29:21.482Z,95025.53
2022-11-08T16:31:50.492Z,95009.94
2022-11-08T16:34:19.168Z,95027.28
2022-11-08T16:36:49.358Z,95015.84
2022-11-08T16:39:20.172Z,95014.44
2022-11-08T16:41:48.516Z,95023.13
2022-11-08T16:44:16.821Z,95013.81
2022-11-08T16:46:44.905Z,95014.81
2022-11-08T16:49:21.726Z,95019.72
2022-11-08T16:51:50.543Z,95014.19
2022-11-08T16:54:24.048Z,95017.09
2022-11-08T16:57:03.376Z,95020.41
2022-11-08T16:59:40.184Z,95013.69
2022-11-08T17:02:20.015Z,95014.06
2022-11-08T17:04:48.342Z,95019.97
2022-11-08T17:07:16.513Z,95019.75
2022-11-08T17:09:45.837Z,95019.13
2022-11-08T17:12:13.933Z,95005.09
2022-11-08T17:14:41.950Z,95020.72
2022-11-08T17:17:12.195Z,95028.59
2022-11-08T17:19:40.156Z,95022.88
2022-11-08T17:22:08.035Z,95024.63
2022-11-08T17:24:36.164Z,95032.91
2022-11-08T17:27:05.776Z,95021.06
2022-11-08T17:29:33.721Z,95040.56
2022-11-08T17:32:01.925Z,95023.78
2022-11-08T17:34:29.975Z,95032.81
2022-11-08T17:36:57.778Z,95028.25
2022-11-08T17:39:25.668Z,95024.31
2022-11-08T17:41:53.682Z,95030.97
2022-11-08T17:44:23.394Z,95040.38
2022-11-08T17:46:51.343Z,95033.63
2022-11-08T17:49:19.213Z,95035.41
2022-11-08T17:51:47.065Z,95034.78
2022-11-08T17:54:15.331Z,95038.09
2022-11-08T17:56:43.209Z,95036.31
2022-11-08T17:59:11.257Z,95037.47
2022-11-08T18:01:40.621Z,95037.66
2022-11-08T18:04:08.684Z,95038.09
2022-11-08T18:06:38.827Z,95029.81
2022-11-08T18:09:07.023Z,95034.59
2022-11-08T18:11:36.757Z,95025.41
2022-11-08T18:14:05.733Z,95035.09
2022-11-08T18:16:34.276Z,95032.22
2022-11-08T18:19:03.533Z,95034.59
2022-11-08T18:21:31.682Z,95033.41
2022-11-08T18:24:00.052Z,95030.28
2022-11-08T18:26:28.569Z,95026.56
2022-11-08T18:28:56.614Z,95019.66
2022-11-08T18:31:24.586Z,95025.19
2022-11-08T18:33:52.484Z,95021.66
2022-11-08T18:36:24.210Z,95028.78
2022-11-08T18:38:53.060Z,95029.38
2022-11-08T18:41:22.622Z,95033.53
2022-11-08T18:43:50.514Z,95020.53
2022-11-08T18:46:20.286Z,95033.56
2022-11-08T18:48:48.728Z,95029.81
2022-11-08T18:51:18.548Z,95029.59
2022-11-08T18:53:50.376Z,95028.81
2022-11-08T18:56:18.245Z,95032.34
2022-11-08T18:58:46.085Z,95032.78
2022-11-08T19:01:14.824Z,95027.84
2022-11-08T19:03:43.888Z,95031.19
2022-11-08T19:06:11.954Z,95034.75
2022-11-08T19:08:40.095Z,95038.91
2022-11-08T19:11:11.890Z,95042.22
2022-11-08T19:13:41.381Z,95035.09
2022-11-08T19:16:13.085Z,95040.03
2022-11-08T19:18:42.248Z,95031.97
2022-11-08T19:21:13.537Z,95039.84
2022-11-08T19:23:42.364Z,95033.72
2022-11-08T19:26:14.850Z,95040.41
2022-11-08T19:28:45.415Z,95037.25
2022-11-08T19:31:14.344Z,95043.16
2022-11-08T19:33:44.559Z,95033.72
2022-11-08T19:36:14.692Z,95040.03
2022-11-08T19:38:43.074Z,95047.91
2022-11-08T19:41:14.286Z,95040.22
2022-11-08T19:43:44.273Z,95049.53
2022-11-08T19:46:13.944Z,95051.94
2022-11-08T19:48:44.519Z,95047.59
2022-11-08T19:51:14.788Z,95049.00
2022-11-08T19:53:42.801Z,95049.59
2022-11-08T19:56:15.026Z,95043.13
2022-11-08T19:58:43.289Z,95044.66
2022-11-08T20:01:12.633Z,95042.94
2022-11-08T20:03:40.998Z,95043.16
2022-11-08T20:06:10.697Z,95047.88
2022-11-08T20:08:39.048Z,95045.13
2022-11-08T20:11:16.737Z,95053.63
2022-11-08T20:13:45.045Z,95054.59
2022-11-08T20:16:14.465Z,95041.97
2022-11-08T20:18:42.937Z,95054.78
2022-11-08T20:21:12.509Z,95038.25
2022-11-08T20:23:42.497Z,95042.38
2022-11-08T20:26:17.373Z,95047.69
2022-11-08T20:28:55.270Z,95048.66
2022-11-08T20:31:25.086Z,95040.53
2022-11-08T20:33:54.785Z,95040.16
2022-11-08T20:36:24.438Z,95035.19
2022-11-08T20:38:56.276Z,95033.16
2022-11-08T20:41:29.135Z,95031.75
2022-11-08T20:43:59.810Z,95032.78
2022-11-08T20:46:29.515Z,95043.00
2022-11-08T20:49:01.423Z,95039.44
2022-11-08T20:51:30.439Z,95041.56
2022-11-08T20:54:00.690Z,95045.06
2022-11-08T20:56:32.597Z,95041.28
2022-11-08T20:59:00.589Z,95041.91
2022-11-08T21:01:32.554Z,95045.63
2022-11-08T21:04:00.704Z,95043.66
2022-11-08T21:06:32.973Z,95043.59
2022-11-08T21:09:25.406Z,95045.94
2022-11-08T21:11:52.791Z,95040.16
2022-11-08T21:14:20.592Z,95043.31
2022-11-08T21:17:19.595Z,95052.19
2022-11-08T21:19:36.171Z,95057.75
2022-11-08T21:22:16.482Z,95046.66
2022-11-08T21:24:45.911Z,95045.50
2022-11-08T21:27:15.984Z,95044.28
2022-11-08T21:29:43.923Z,95046.28
2022-11-08T21:32:11.842Z,95050.56
2022-11-08T21:34:45.210Z,95045.44
2022-11-08T21:37:13.717Z,95040.75
2022-11-08T21:39:41.518Z,95035.81
2022-11-08T21:42:09.306Z,95035.41
2022-11-08T21:44:38.490Z,95043.19
2022-11-08T21:47:06.324Z,95036.91
2022-11-08T21:49:34.099Z,95032.41
2022-11-08T21:52:02.183Z,95044.16
2022-11-08T21:54:29.981Z,95029.97
2022-11-08T21:56:57.849Z,95029.53
2022-11-08T21:59:25.644Z,95033.25
2022-11-08T22:01:54.860Z,95034.41
2022-11-08T22:04:22.651Z,95033.22
2022-11-08T22:06:50.499Z,95031.63
2022-11-08T22:09:18.416Z,95038.13
2022-11-08T22:11:46.260Z,95027.97
2022-11-08T22:14:14.038Z,95029.91
2022-11-08T22:16:41.945Z,95039.91
2022-11-08T22:19:11.777Z,95031.38
2022-11-08T22:21:40.529Z,95032.78
2022-11-08T22:24:10.464Z,95028.81
2022-11-08T22:26:39.077Z,95019.41
2022-11-08T22:29:07.333Z,95023.94
2022-11-08T22:31:35.147Z,95016.09
2022-11-08T22:34:03.686Z,95020.59
2022-11-08T22:36:32.984Z,95022.75
2022-11-08T22:39:00.991Z,95014.88
2022-11-08T22:41:29.375Z,95015.88
2022-11-08T22:43:57.132Z,95020.97
2022-11-08T22:46:25.543Z,95007.16
2022-11-08T22:48:53.323Z,95021.53
2022-11-08T22:51:21.110Z,95025.81
2022-11-08T22:53:50.308Z,95026.38
2022-11-08T22:56:18.103Z,95029.53
2022-11-08T22:58:46.076Z,95029.91
2022-11-08T23:01:14.898Z,95028.50
2022-11-08T23:03:46.585Z,95028.19
2022-11-08T23:06:15.064Z,95020.47
2022-11-08T23:08:43.347Z,95011.78
2022-11-08T23:11:30.295Z,95010.81
2022-11-08T23:14:15.485Z,95022.34
2022-11-08T23:16:45.613Z,95013.97
2022-11-08T23:19:32.332Z,95010.63
2022-11-08T23:22:26.780Z,95015.13
2022-11-08T23:24:54.599Z,95012.94
2022-11-08T23:27:42.162Z,95005.88
2022-11-08T23:30:31.036Z,95001.31
2022-11-08T23:32:58.808Z,95003.78
2022-11-08T23:35:26.579Z,95006.50
2022-11-08T23:37:54.378Z,95005.47
2022-11-08T23:40:39.703Z,95013.13
2022-11-08T23:43:25.771Z,95011.59
2022-11-08T23:45:53.667Z,95005.81
2022-11-08T23:48:21.431Z,95003.44
2022-11-08T23:50:50.811Z,95006.44
2022-11-08T23:53:19.301Z,95001.47
2022-11-08T23:55:47.494Z,94998.31
2022-11-08T23:58:16.627Z,94993.09
